sensor_id;sensor_type;location;lat;lon;timestamp;temperature;humidity
4564;DHT22;2294;51.818;8.484;2023-01-24T00:01:17;6.30;99.90
4564;DHT22;2294;51.818;8.484;2023-01-24T00:03:44;6.30;99.90
4564;DHT22;2294;51.818;8.484;2023-01-24T00:06:12;6.30;99.90
4564;DHT22;2294;51.818;8.484;2023-01-24T00:08:40;6.10;99.90
4564;DHT22;2294;51.818;8.484;2023-01-24T00:11:09;6.20;99.90
4564;DHT22;2294;51.818;8.484;2023-01-24T00:13:37;6.20;99.90
4564;DHT22;2294;51.818;8.484;2023-01-24T00:16:05;6.20;99.90
4564;DHT22;2294;51.818;8.484;2023-01-24T00:18:32;6.10;99.90
4564;DHT22;2294;51.818;8.484;2023-01-24T00:21:05;6.10;99.90
4564;DHT22;2294;51.818;8.484;2023-01-24T00:23:34;6.10;99.90
4564;DHT22;2294;51.818;8.484;2023-01-24T00:26:03;6.10;99.90
4564;DHT22;2294;51.818;8.484;2023-01-24T00:28:30;6.10;99.90
4564;DHT22;2294;51.818;8.484;2023-01-24T00:30:57;6.10;99.90
4564;DHT22;2294;51.818;8.484;2023-01-24T00:33:24;6.00;99.90
4564;DHT22;2294;51.818;8.484;2023-01-24T00:35:51;6.00;99.90
4564;DHT22;2294;51.818;8.484;2023-01-24T00:38:18;6.00;99.90
4564;DHT22;2294;51.818;8.484;2023-01-24T00:40:45;6.00;99.90
4564;DHT22;2294;51.818;8.484;2023-01-24T00:43:14;6.00;99.90
4564;DHT22;2294;51.818;8.484;2023-01-24T00:45:43;6.00;99.90
4564;DHT22;2294;51.818;8.484;2023-01-24T00:48:10;6.00;99.90
4564;DHT22;2294;51.818;8.484;2023-01-24T00:50:37;6.00;99.90
4564;DHT22;2294;51.818;8.484;2023-01-24T00:53:04;6.00;99.90
4564;DHT22;2294;51.818;8.484;2023-01-24T00:55:31;5.90;99.90
4564;DHT22;2294;51.818;8.484;2023-01-24T00:57:58;6.00;99.90
4564;DHT22;2294;51.818;8.484;2023-01-24T01:00:26;6.00;99.90
4564;DHT22;2294;51.818;8.484;2023-01-24T01:02:53;5.90;99.90
4564;DHT22;2294;51.818;8.484;2023-01-24T01:05:20;5.90;99.90
4564;DHT22;2294;51.818;8.484;2023-01-24T01:07:47;5.90;99.90
4564;DHT22;2294;51.818;8.484;2023-01-24T01:10:14;5.90;99.90
4564;DHT22;2294;51.818;8.484;2023-01-24T01:12:41;5.90;99.90
4564;DHT22;2294;51.818;8.484;2023-01-24T01:15:08;5.90;99.90
4564;DHT22;2294;51.818;8.484;2023-01-24T01:17:37;5.80;99.90
4564;DHT22;2294;51.818;8.484;2023-01-24T01:20:04;5.90;99.90
4564;DHT22;2294;51.818;8.484;2023-01-24T01:22:31;5.80;99.90
4564;DHT22;2294;51.818;8.484;2023-01-24T01:24:58;5.90;99.90
4564;DHT22;2294;51.818;8.484;2023-01-24T01:27:25;5.80;99.90
4564;DHT22;2294;51.818;8.484;2023-01-24T01:29:52;5.80;99.90
4564;DHT22;2294;51.818;8.484;2023-01-24T01:32:19;5.80;99.90
4564;DHT22;2294;51.818;8.484;2023-01-24T01:34:47;5.70;99.90
4564;DHT22;2294;51.818;8.484;2023-01-24T01:37:14;5.80;99.90
4564;DHT22;2294;51.818;8.484;2023-01-24T01:39:41;5.70;99.90
4564;DHT22;2294;51.818;8.484;2023-01-24T01:42:07;5.70;99.90
4564;DHT22;2294;51.818;8.484;2023-01-24T01:44:34;5.70;99.90
4564;DHT22;2294;51.818;8.484;2023-01-24T01:47:18;5.70;99.90
4564;DHT22;2294;51.818;8.484;2023-01-24T01:49:52;5.60;99.90
4564;DHT22;2294;51.818;8.484;2023-01-24T01:52:22;5.60;99.90
4564;DHT22;2294;51.818;8.484;2023-01-24T01:54:53;5.70;99.90
4564;DHT22;2294;51.818;8.484;2023-01-24T01:57:25;5.60;99.90
4564;DHT22;2294;51.818;8.484;2023-01-24T01:59:57;5.70;99.90
4564;DHT22;2294;51.818;8.484;2023-01-24T02:02:26;5.60;99.90
4564;DHT22;2294;51.818;8.484;2023-01-24T02:04:57;5.60;99.90
4564;DHT22;2294;51.818;8.484;2023-01-24T02:07:32;5.60;99.90
4564;DHT22;2294;51.818;8.484;2023-01-24T02:10:01;5.60;99.90
4564;DHT22;2294;51.818;8.484;2023-01-24T02:12:31;5.60;99.90
4564;DHT22;2294;51.818;8.484;2023-01-24T02:15:03;5.60;99.90
4564;DHT22;2294;51.818;8.484;2023-01-24T02:17:44;5.60;99.90
4564;DHT22;2294;51.818;8.484;2023-01-24T02:20:20;5.60;99.90
4564;DHT22;2294;51.818;8.484;2023-01-24T02:22:56;5.60;99.90
4564;DHT22;2294;51.818;8.484;2023-01-24T02:25:31;5.60;99.90
4564;DHT22;2294;51.818;8.484;2023-01-24T02:28:01;5.60;99.90
4564;DHT22;2294;51.818;8.484;2023-01-24T02:30:29;5.60;99.90
4564;DHT22;2294;51.818;8.484;2023-01-24T02:32:56;5.50;99.90
4564;DHT22;2294;51.818;8.484;2023-01-24T02:35:25;5.50;99.90
4564;DHT22;2294;51.818;8.484;2023-01-24T02:37:52;5.50;99.90
4564;DHT22;2294;51.818;8.484;2023-01-24T02:40:19;5.50;99.90
4564;DHT22;2294;51.818;8.484;2023-01-24T02:43:01;5.50;99.90
4564;DHT22;2294;51.818;8.484;2023-01-24T02:45:30;5.50;99.90
4564;DHT22;2294;51.818;8.484;2023-01-24T02:47:58;5.40;99.90
4564;DHT22;2294;51.818;8.484;2023-01-24T02:50:26;5.40;99.90
4564;DHT22;2294;51.818;8.484;2023-01-24T02:52:54;5.40;99.90
4564;DHT22;2294;51.818;8.484;2023-01-24T02:55:38;5.40;99.90
4564;DHT22;2294;51.818;8.484;2023-01-24T02:58:28;5.40;99.90
4564;DHT22;2294;51.818;8.484;2023-01-24T03:00:54;5.40;99.90
4564;DHT22;2294;51.818;8.484;2023-01-24T03:03:20;5.30;99.90
4564;DHT22;2294;51.818;8.484;2023-01-24T03:05:47;5.30;99.90
4564;DHT22;2294;51.818;8.484;2023-01-24T03:08:22;5.30;99.90
4564;DHT22;2294;51.818;8.484;2023-01-24T03:10:50;5.30;99.90
4564;DHT22;2294;51.818;8.484;2023-01-24T03:13:17;5.30;99.90
4564;DHT22;2294;51.818;8.484;2023-01-24T03:16:04;5.30;99.90
4564;DHT22;2294;51.818;8.484;2023-01-24T03:18:48;5.30;99.90
4564;DHT22;2294;51.818;8.484;2023-01-24T03:21:32;5.20;99.90
4564;DHT22;2294;51.818;8.484;2023-01-24T03:24:17;5.30;99.90
4564;DHT22;2294;51.818;8.484;2023-01-24T03:27:01;5.20;99.90
4564;DHT22;2294;51.818;8.484;2023-01-24T03:29:45;5.30;99.90
4564;DHT22;2294;51.818;8.484;2023-01-24T03:32:31;5.30;99.90
4564;DHT22;2294;51.818;8.484;2023-01-24T03:35:15;5.30;99.90
4564;DHT22;2294;51.818;8.484;2023-01-24T03:37:42;5.20;99.90
4564;DHT22;2294;51.818;8.484;2023-01-24T03:40:27;5.10;99.90
4564;DHT22;2294;51.818;8.484;2023-01-24T03:42:54;5.20;99.90
4564;DHT22;2294;51.818;8.484;2023-01-24T03:45:22;5.20;99.90
4564;DHT22;2294;51.818;8.484;2023-01-24T03:47:52;5.20;99.90
4564;DHT22;2294;51.818;8.484;2023-01-24T03:50:23;5.20;99.90
4564;DHT22;2294;51.818;8.484;2023-01-24T03:53:08;5.10;99.90
4564;DHT22;2294;51.818;8.484;2023-01-24T03:55:35;5.20;99.90
4564;DHT22;2294;51.818;8.484;2023-01-24T03:58:03;5.20;99.90
4564;DHT22;2294;51.818;8.484;2023-01-24T04:00:31;5.20;99.90
4564;DHT22;2294;51.818;8.484;2023-01-24T04:02:59;5.10;99.90
4564;DHT22;2294;51.818;8.484;2023-01-24T04:05:27;5.10;99.90
4564;DHT22;2294;51.818;8.484;2023-01-24T04:07:54;5.10;99.90
4564;DHT22;2294;51.818;8.484;2023-01-24T04:10:22;5.00;99.90
4564;DHT22;2294;51.818;8.484;2023-01-24T04:12:48;5.00;99.90
4564;DHT22;2294;51.818;8.484;2023-01-24T04:15:17;5.10;99.90
4564;DHT22;2294;51.818;8.484;2023-01-24T04:17:45;5.10;99.90
4564;DHT22;2294;51.818;8.484;2023-01-24T04:20:13;5.10;99.90
4564;DHT22;2294;51.818;8.484;2023-01-24T04:22:40;5.10;99.90
4564;DHT22;2294;51.818;8.484;2023-01-24T04:25:08;5.10;99.90
4564;DHT22;2294;51.818;8.484;2023-01-24T04:27:36;5.10;99.90
4564;DHT22;2294;51.818;8.484;2023-01-24T04:30:04;5.10;99.90
4564;DHT22;2294;51.818;8.484;2023-01-24T04:32:31;5.10;99.90
4564;DHT22;2294;51.818;8.484;2023-01-24T04:34:58;5.00;99.90
4564;DHT22;2294;51.818;8.484;2023-01-24T04:37:27;5.10;99.90
4564;DHT22;2294;51.818;8.484;2023-01-24T04:39:54;5.00;99.90
4564;DHT22;2294;51.818;8.484;2023-01-24T04:42:21;5.10;99.90
4564;DHT22;2294;51.818;8.484;2023-01-24T04:44:48;5.10;99.90
4564;DHT22;2294;51.818;8.484;2023-01-24T04:47:15;5.10;99.90
4564;DHT22;2294;51.818;8.484;2023-01-24T04:49:42;5.00;99.90
4564;DHT22;2294;51.818;8.484;2023-01-24T04:52:09;5.00;99.90
4564;DHT22;2294;51.818;8.484;2023-01-24T04:54:38;5.00;99.90
4564;DHT22;2294;51.818;8.484;2023-01-24T04:57:05;5.00;99.90
4564;DHT22;2294;51.818;8.484;2023-01-24T04:59:32;5.00;99.90
4564;DHT22;2294;51.818;8.484;2023-01-24T05:01:59;5.00;99.90
4564;DHT22;2294;51.818;8.484;2023-01-24T05:04:26;4.90;99.90
4564;DHT22;2294;51.818;8.484;2023-01-24T05:06:53;5.00;99.90
4564;DHT22;2294;51.818;8.484;2023-01-24T05:09:19;4.90;99.90
4564;DHT22;2294;51.818;8.484;2023-01-24T05:11:48;4.90;99.90
4564;DHT22;2294;51.818;8.484;2023-01-24T05:14:15;4.90;99.90
4564;DHT22;2294;51.818;8.484;2023-01-24T05:16:41;4.90;99.90
4564;DHT22;2294;51.818;8.484;2023-01-24T05:19:08;4.90;99.90
4564;DHT22;2294;51.818;8.484;2023-01-24T05:21:35;4.80;99.90
4564;DHT22;2294;51.818;8.484;2023-01-24T05:24:02;4.90;99.90
4564;DHT22;2294;51.818;8.484;2023-01-24T05:26:29;4.80;99.90
4564;DHT22;2294;51.818;8.484;2023-01-24T05:28:58;4.80;99.90
4564;DHT22;2294;51.818;8.484;2023-01-24T05:31:25;4.80;99.90
4564;DHT22;2294;51.818;8.484;2023-01-24T05:33:51;4.80;99.90
4564;DHT22;2294;51.818;8.484;2023-01-24T05:36:20;4.80;99.90
4564;DHT22;2294;51.818;8.484;2023-01-24T05:38:47;4.80;99.90
4564;DHT22;2294;51.818;8.484;2023-01-24T05:41:16;4.80;99.90
4564;DHT22;2294;51.818;8.484;2023-01-24T05:43:43;4.80;99.90
4564;DHT22;2294;51.818;8.484;2023-01-24T05:46:14;4.80;99.90
4564;DHT22;2294;51.818;8.484;2023-01-24T05:48:41;4.80;99.90
4564;DHT22;2294;51.818;8.484;2023-01-24T05:51:10;4.80;99.90
4564;DHT22;2294;51.818;8.484;2023-01-24T05:53:39;4.80;99.90
4564;DHT22;2294;51.818;8.484;2023-01-24T05:56:10;4.80;99.90
4564;DHT22;2294;51.818;8.484;2023-01-24T05:58:38;4.80;99.90
4564;DHT22;2294;51.818;8.484;2023-01-24T06:01:08;4.90;99.90
4564;DHT22;2294;51.818;8.484;2023-01-24T06:03:39;4.80;99.90
4564;DHT22;2294;51.818;8.484;2023-01-24T06:06:08;4.70;99.90
4564;DHT22;2294;51.818;8.484;2023-01-24T06:08:36;4.80;99.90
4564;DHT22;2294;51.818;8.484;2023-01-24T06:11:04;4.80;99.90
4564;DHT22;2294;51.818;8.484;2023-01-24T06:13:31;4.90;99.90
4564;DHT22;2294;51.818;8.484;2023-01-24T06:16:03;4.80;99.90
4564;DHT22;2294;51.818;8.484;2023-01-24T06:18:30;4.80;99.90
4564;DHT22;2294;51.818;8.484;2023-01-24T06:21:04;4.80;99.90
4564;DHT22;2294;51.818;8.484;2023-01-24T06:23:32;4.90;99.90
4564;DHT22;2294;51.818;8.484;2023-01-24T06:25:59;4.90;99.90
4564;DHT22;2294;51.818;8.484;2023-01-24T06:28:26;4.80;99.90
4564;DHT22;2294;51.818;8.484;2023-01-24T06:31:06;4.80;99.90
4564;DHT22;2294;51.818;8.484;2023-01-24T06:33:44;4.80;99.90
4564;DHT22;2294;51.818;8.484;2023-01-24T06:36:29;4.80;99.90
4564;DHT22;2294;51.818;8.484;2023-01-24T06:38:59;4.80;99.90
4564;DHT22;2294;51.818;8.484;2023-01-24T06:41:26;4.80;99.90
4564;DHT22;2294;51.818;8.484;2023-01-24T06:43:53;4.80;99.90
4564;DHT22;2294;51.818;8.484;2023-01-24T06:46:20;4.80;99.90
4564;DHT22;2294;51.818;8.484;2023-01-24T06:48:47;4.80;99.90
4564;DHT22;2294;51.818;8.484;2023-01-24T06:51:14;4.80;99.90
4564;DHT22;2294;51.818;8.484;2023-01-24T06:53:42;4.40;99.90
4564;DHT22;2294;51.818;8.484;2023-01-24T06:56:09;4.90;99.90
4564;DHT22;2294;51.818;8.484;2023-01-24T06:58:37;4.90;99.90
4564;DHT22;2294;51.818;8.484;2023-01-24T07:01:04;4.90;99.90
4564;DHT22;2294;51.818;8.484;2023-01-24T07:03:31;4.80;99.90
4564;DHT22;2294;51.818;8.484;2023-01-24T07:05:58;4.80;99.90
4564;DHT22;2294;51.818;8.484;2023-01-24T07:08:25;4.80;99.90
4564;DHT22;2294;51.818;8.484;2023-01-24T07:10:53;4.90;99.90
4564;DHT22;2294;51.818;8.484;2023-01-24T07:13:20;4.80;99.90
4564;DHT22;2294;51.818;8.484;2023-01-24T07:15:47;4.80;99.90
4564;DHT22;2294;51.818;8.484;2023-01-24T07:18:16;4.80;99.90
4564;DHT22;2294;51.818;8.484;2023-01-24T07:20:43;4.80;99.90
4564;DHT22;2294;51.818;8.484;2023-01-24T07:23:22;4.90;99.90
4564;DHT22;2294;51.818;8.484;2023-01-24T07:25:50;4.80;99.90
4564;DHT22;2294;51.818;8.484;2023-01-24T07:28:19;4.80;99.90
4564;DHT22;2294;51.818;8.484;2023-01-24T07:30:46;4.90;99.90
4564;DHT22;2294;51.818;8.484;2023-01-24T07:33:14;4.90;99.90
4564;DHT22;2294;51.818;8.484;2023-01-24T07:35:41;4.90;99.90
4564;DHT22;2294;51.818;8.484;2023-01-24T07:38:08;4.90;99.90
4564;DHT22;2294;51.818;8.484;2023-01-24T07:40:37;4.80;99.90
4564;DHT22;2294;51.818;8.484;2023-01-24T07:43:05;4.80;99.90
4564;DHT22;2294;51.818;8.484;2023-01-24T07:45:33;4.80;99.90
4564;DHT22;2294;51.818;8.484;2023-01-24T07:48:04;4.90;99.90
4564;DHT22;2294;51.818;8.484;2023-01-24T07:50:32;4.90;99.90
4564;DHT22;2294;51.818;8.484;2023-01-24T07:52:59;4.70;99.90
4564;DHT22;2294;51.818;8.484;2023-01-24T07:55:26;4.80;99.90
4564;DHT22;2294;51.818;8.484;2023-01-24T07:57:58;4.80;99.90
4564;DHT22;2294;51.818;8.484;2023-01-24T08:00:25;4.10;99.90
4564;DHT22;2294;51.818;8.484;2023-01-24T08:02:53;4.90;99.90
4564;DHT22;2294;51.818;8.484;2023-01-24T08:05:20;4.90;99.90
4564;DHT22;2294;51.818;8.484;2023-01-24T08:07:47;4.90;99.90
4564;DHT22;2294;51.818;8.484;2023-01-24T08:10:15;4.90;99.90
4564;DHT22;2294;51.818;8.484;2023-01-24T08:12:42;4.80;99.90
4564;DHT22;2294;51.818;8.484;2023-01-24T08:15:09;4.90;99.90
4564;DHT22;2294;51.818;8.484;2023-01-24T08:17:36;4.90;99.90
4564;DHT22;2294;51.818;8.484;2023-01-24T08:20:07;4.90;99.90
4564;DHT22;2294;51.818;8.484;2023-01-24T08:22:34;5.00;99.90
4564;DHT22;2294;51.818;8.484;2023-01-24T08:25:01;5.00;99.90
4564;DHT22;2294;51.818;8.484;2023-01-24T08:27:28;5.00;99.90
4564;DHT22;2294;51.818;8.484;2023-01-24T08:29:55;5.00;99.90
4564;DHT22;2294;51.818;8.484;2023-01-24T08:32:22;5.00;99.90
4564;DHT22;2294;51.818;8.484;2023-01-24T08:34:49;5.00;99.90
4564;DHT22;2294;51.818;8.484;2023-01-24T08:37:17;4.90;99.90
4564;DHT22;2294;51.818;8.484;2023-01-24T08:39:44;5.00;99.90
4564;DHT22;2294;51.818;8.484;2023-01-24T08:42:12;5.00;99.90
4564;DHT22;2294;51.818;8.484;2023-01-24T08:44:39;5.00;99.90
4564;DHT22;2294;51.818;8.484;2023-01-24T08:47:05;5.00;99.90
4564;DHT22;2294;51.818;8.484;2023-01-24T08:49:32;5.10;99.90
4564;DHT22;2294;51.818;8.484;2023-01-24T08:51:59;5.10;99.90
4564;DHT22;2294;51.818;8.484;2023-01-24T08:54:28;5.00;99.90
4564;DHT22;2294;51.818;8.484;2023-01-24T08:56:55;5.10;99.90
4564;DHT22;2294;51.818;8.484;2023-01-24T08:59:22;5.10;99.90
4564;DHT22;2294;51.818;8.484;2023-01-24T09:01:49;5.10;99.90
4564;DHT22;2294;51.818;8.484;2023-01-24T09:04:16;5.00;99.90
4564;DHT22;2294;51.818;8.484;2023-01-24T09:06:43;4.90;99.90
4564;DHT22;2294;51.818;8.484;2023-01-24T09:09:09;5.00;99.90
4564;DHT22;2294;51.818;8.484;2023-01-24T09:11:38;5.00;99.90
4564;DHT22;2294;51.818;8.484;2023-01-24T09:14:05;4.90;99.90
4564;DHT22;2294;51.818;8.484;2023-01-24T09:16:31;4.90;99.90
4564;DHT22;2294;51.818;8.484;2023-01-24T09:18:59;4.90;99.90
4564;DHT22;2294;51.818;8.484;2023-01-24T09:21:26;4.90;99.90
4564;DHT22;2294;51.818;8.484;2023-01-24T09:23:53;4.80;99.90
4564;DHT22;2294;51.818;8.484;2023-01-24T09:26:20;5.00;99.90
4564;DHT22;2294;51.818;8.484;2023-01-24T09:28:49;5.00;99.90
4564;DHT22;2294;51.818;8.484;2023-01-24T09:34:42;5.10;99.90
4564;DHT22;2294;51.818;8.484;2023-01-24T09:37:12;5.20;99.90
4564;DHT22;2294;51.818;8.484;2023-01-24T09:39:39;5.00;99.90
4564;DHT22;2294;51.818;8.484;2023-01-24T09:42:12;5.00;99.90
4564;DHT22;2294;51.818;8.484;2023-01-24T09:44:46;4.90;99.90
4564;DHT22;2294;51.818;8.484;2023-01-24T09:47:20;5.00;99.90
4564;DHT22;2294;51.818;8.484;2023-01-24T09:49:52;5.10;99.90
4564;DHT22;2294;51.818;8.484;2023-01-24T09:52:29;5.00;99.90
4564;DHT22;2294;51.818;8.484;2023-01-24T09:55:02;5.10;99.90
4564;DHT22;2294;51.818;8.484;2023-01-24T09:57:46;5.10;99.90
4564;DHT22;2294;51.818;8.484;2023-01-24T10:00:22;5.10;99.90
4564;DHT22;2294;51.818;8.484;2023-01-24T10:02:49;5.20;99.90
4564;DHT22;2294;51.818;8.484;2023-01-24T10:05:16;5.20;99.90
4564;DHT22;2294;51.818;8.484;2023-01-24T10:07:57;5.00;99.90
4564;DHT22;2294;51.818;8.484;2023-01-24T10:10:44;5.10;99.90
4564;DHT22;2294;51.818;8.484;2023-01-24T10:13:29;5.00;99.90
4564;DHT22;2294;51.818;8.484;2023-01-24T10:16:09;5.00;99.90
4564;DHT22;2294;51.818;8.484;2023-01-24T10:18:46;5.10;99.90
4564;DHT22;2294;51.818;8.484;2023-01-24T10:21:38;5.30;99.90
4564;DHT22;2294;51.818;8.484;2023-01-24T10:24:11;5.20;99.90
4564;DHT22;2294;51.818;8.484;2023-01-24T10:26:44;5.20;99.90
4564;DHT22;2294;51.818;8.484;2023-01-24T10:29:16;5.20;99.90
4564;DHT22;2294;51.818;8.484;2023-01-24T10:31:50;5.20;99.90
4564;DHT22;2294;51.818;8.484;2023-01-24T10:34:27;5.30;99.90
4564;DHT22;2294;51.818;8.484;2023-01-24T10:36:58;5.30;99.90
4564;DHT22;2294;51.818;8.484;2023-01-24T10:39:26;5.70;99.90
4564;DHT22;2294;51.818;8.484;2023-01-24T10:41:53;5.30;99.90
4564;DHT22;2294;51.818;8.484;2023-01-24T10:44:24;5.30;99.90
4564;DHT22;2294;51.818;8.484;2023-01-24T10:47:13;5.30;99.90
4564;DHT22;2294;51.818;8.484;2023-01-24T10:49:50;5.40;99.90
4564;DHT22;2294;51.818;8.484;2023-01-24T10:52:19;5.40;99.90
4564;DHT22;2294;51.818;8.484;2023-01-24T10:54:48;5.30;99.90
4564;DHT22;2294;51.818;8.484;2023-01-24T10:57:27;5.20;99.90
4564;DHT22;2294;51.818;8.484;2023-01-24T10:59:55;5.00;99.90
4564;DHT22;2294;51.818;8.484;2023-01-24T11:02:31;5.10;99.90
4564;DHT22;2294;51.818;8.484;2023-01-24T11:05:00;5.40;99.90
4564;DHT22;2294;51.818;8.484;2023-01-24T11:07:30;5.40;99.90
4564;DHT22;2294;51.818;8.484;2023-01-24T11:10:01;5.30;99.90
4564;DHT22;2294;51.818;8.484;2023-01-24T11:12:33;5.20;99.90
4564;DHT22;2294;51.818;8.484;2023-01-24T11:15:00;5.40;99.90
4564;DHT22;2294;51.818;8.484;2023-01-24T11:17:32;5.50;99.90
4564;DHT22;2294;51.818;8.484;2023-01-24T11:20:04;5.50;99.90
4564;DHT22;2294;51.818;8.484;2023-01-24T11:22:49;5.50;99.90
4564;DHT22;2294;51.818;8.484;2023-01-24T11:25:16;5.50;99.90
4564;DHT22;2294;51.818;8.484;2023-01-24T11:27:47;5.60;99.90
4564;DHT22;2294;51.818;8.484;2023-01-24T11:30:19;5.70;99.90
4564;DHT22;2294;51.818;8.484;2023-01-24T11:33:01;5.60;99.90
4564;DHT22;2294;51.818;8.484;2023-01-24T11:35:34;5.60;99.90
4564;DHT22;2294;51.818;8.484;2023-01-24T11:38:16;5.60;99.90
4564;DHT22;2294;51.818;8.484;2023-01-24T11:40:53;5.60;99.90
4564;DHT22;2294;51.818;8.484;2023-01-24T11:43:47;5.70;99.90
4564;DHT22;2294;51.818;8.484;2023-01-24T11:46:29;5.40;99.90
4564;DHT22;2294;51.818;8.484;2023-01-24T11:49:29;5.40;99.90
4564;DHT22;2294;51.818;8.484;2023-01-24T11:52:07;5.40;99.90
4564;DHT22;2294;51.818;8.484;2023-01-24T11:54:43;5.30;99.90
4564;DHT22;2294;51.818;8.484;2023-01-24T11:57:23;5.20;99.90
4564;DHT22;2294;51.818;8.484;2023-01-24T12:00:03;5.40;99.90
4564;DHT22;2294;51.818;8.484;2023-01-24T12:02:49;5.50;99.90
4564;DHT22;2294;51.818;8.484;2023-01-24T12:05:28;5.40;99.90
4564;DHT22;2294;51.818;8.484;2023-01-24T12:08:09;5.10;99.90
4564;DHT22;2294;51.818;8.484;2023-01-24T12:10:49;5.30;99.90
4564;DHT22;2294;51.818;8.484;2023-01-24T12:13:26;5.40;99.90
4564;DHT22;2294;51.818;8.484;2023-01-24T12:16:04;5.50;99.90
4564;DHT22;2294;51.818;8.484;2023-01-24T12:18:51;5.30;99.90
4564;DHT22;2294;51.818;8.484;2023-01-24T12:21:23;5.10;99.90
4564;DHT22;2294;51.818;8.484;2023-01-24T12:23:54;5.20;99.90
4564;DHT22;2294;51.818;8.484;2023-01-24T12:26:24;5.20;99.90
4564;DHT22;2294;51.818;8.484;2023-01-24T12:28:59;5.20;99.90
4564;DHT22;2294;51.818;8.484;2023-01-24T12:31:38;5.30;99.90
4564;DHT22;2294;51.818;8.484;2023-01-24T12:34:15;5.30;99.90
4564;DHT22;2294;51.818;8.484;2023-01-24T12:36:56;5.30;99.90
4564;DHT22;2294;51.818;8.484;2023-01-24T12:39:32;5.30;99.90
4564;DHT22;2294;51.818;8.484;2023-01-24T12:42:09;5.40;99.90
4564;DHT22;2294;51.818;8.484;2023-01-24T12:44:44;5.20;99.90
4564;DHT22;2294;51.818;8.484;2023-01-24T12:47:23;5.20;99.90
4564;DHT22;2294;51.818;8.484;2023-01-24T12:50:03;5.30;99.90
4564;DHT22;2294;51.818;8.484;2023-01-24T12:52:41;5.20;99.90
4564;DHT22;2294;51.818;8.484;2023-01-24T12:55:13;5.10;99.90
4564;DHT22;2294;51.818;8.484;2023-01-24T12:57:44;5.20;99.90
4564;DHT22;2294;51.818;8.484;2023-01-24T13:00:16;5.30;99.90
4564;DHT22;2294;51.818;8.484;2023-01-24T13:03:01;5.20;99.90
4564;DHT22;2294;51.818;8.484;2023-01-24T13:05:47;5.20;99.90
4564;DHT22;2294;51.818;8.484;2023-01-24T13:08:23;5.10;99.90
4564;DHT22;2294;51.818;8.484;2023-01-24T13:11:02;5.20;99.90
4564;DHT22;2294;51.818;8.484;2023-01-24T13:13:41;5.20;99.90
4564;DHT22;2294;51.818;8.484;2023-01-24T13:16:55;5.30;99.90
4564;DHT22;2294;51.818;8.484;2023-01-24T13:19:41;5.30;99.90
4564;DHT22;2294;51.818;8.484;2023-01-24T13:22:21;5.20;99.90
4564;DHT22;2294;51.818;8.484;2023-01-24T13:24:57;5.20;99.90
4564;DHT22;2294;51.818;8.484;2023-01-24T13:27:34;5.20;99.90
4564;DHT22;2294;51.818;8.484;2023-01-24T13:30:20;5.10;99.90
4564;DHT22;2294;51.818;8.484;2023-01-24T13:32:49;5.00;99.90
4564;DHT22;2294;51.818;8.484;2023-01-24T13:35:18;5.00;99.90
4564;DHT22;2294;51.818;8.484;2023-01-24T13:37:51;5.10;99.90
4564;DHT22;2294;51.818;8.484;2023-01-24T13:40:23;5.00;99.90
4564;DHT22;2294;51.818;8.484;2023-01-24T13:42:52;5.10;99.90
4564;DHT22;2294;51.818;8.484;2023-01-24T13:48:45;5.10;99.90
4564;DHT22;2294;51.818;8.484;2023-01-24T13:51:33;5.00;99.90
4564;DHT22;2294;51.818;8.484;2023-01-24T13:54:01;5.10;99.90
4564;DHT22;2294;51.818;8.484;2023-01-24T13:56:30;5.00;99.90
4564;DHT22;2294;51.818;8.484;2023-01-24T13:58:58;5.00;99.90
4564;DHT22;2294;51.818;8.484;2023-01-24T14:01:26;5.00;99.90
4564;DHT22;2294;51.818;8.484;2023-01-24T14:03:56;4.90;99.90
4564;DHT22;2294;51.818;8.484;2023-01-24T14:06:23;4.80;99.90
4564;DHT22;2294;51.818;8.484;2023-01-24T14:09:03;4.80;99.90
4564;DHT22;2294;51.818;8.484;2023-01-24T14:11:51;4.90;99.90
4564;DHT22;2294;51.818;8.484;2023-01-24T14:15:00;4.80;99.90
4564;DHT22;2294;51.818;8.484;2023-01-24T14:17:47;5.00;99.90
4564;DHT22;2294;51.818;8.484;2023-01-24T14:20:22;4.90;99.90
4564;DHT22;2294;51.818;8.484;2023-01-24T14:22:53;5.00;99.90
4564;DHT22;2294;51.818;8.484;2023-01-24T14:25:34;4.90;99.90
4564;DHT22;2294;51.818;8.484;2023-01-24T14:28:11;4.90;99.90
4564;DHT22;2294;51.818;8.484;2023-01-24T14:30:43;4.70;99.90
4564;DHT22;2294;51.818;8.484;2023-01-24T14:33:22;4.70;99.90
4564;DHT22;2294;51.818;8.484;2023-01-24T14:35:58;4.80;99.90
4564;DHT22;2294;51.818;8.484;2023-01-24T14:38:26;4.80;99.90
4564;DHT22;2294;51.818;8.484;2023-01-24T14:40:54;4.70;99.90
4564;DHT22;2294;51.818;8.484;2023-01-24T14:43:27;4.80;99.90
4564;DHT22;2294;51.818;8.484;2023-01-24T14:45:57;4.70;99.90
4564;DHT22;2294;51.818;8.484;2023-01-24T14:48:34;4.70;99.90
4564;DHT22;2294;51.818;8.484;2023-01-24T14:51:04;4.80;99.90
4564;DHT22;2294;51.818;8.484;2023-01-24T14:53:33;4.70;99.90
4564;DHT22;2294;51.818;8.484;2023-01-24T14:56:02;4.70;99.90
4564;DHT22;2294;51.818;8.484;2023-01-24T14:58:30;4.60;99.90
4564;DHT22;2294;51.818;8.484;2023-01-24T15:00:58;4.50;99.90
4564;DHT22;2294;51.818;8.484;2023-01-24T15:03:27;4.60;99.90
4564;DHT22;2294;51.818;8.484;2023-01-24T15:05:57;4.70;99.90
4564;DHT22;2294;51.818;8.484;2023-01-24T15:08:25;4.50;99.90
4564;DHT22;2294;51.818;8.484;2023-01-24T15:10:55;4.50;99.90
4564;DHT22;2294;51.818;8.484;2023-01-24T15:13:29;4.50;99.90
4564;DHT22;2294;51.818;8.484;2023-01-24T15:15:57;4.50;99.90
4564;DHT22;2294;51.818;8.484;2023-01-24T15:18:52;4.50;99.90
4564;DHT22;2294;51.818;8.484;2023-01-24T15:21:32;4.40;99.90
4564;DHT22;2294;51.818;8.484;2023-01-24T15:24:00;4.30;99.90
4564;DHT22;2294;51.818;8.484;2023-01-24T15:26:39;4.20;99.90
4564;DHT22;2294;51.818;8.484;2023-01-24T15:29:38;4.20;99.90
4564;DHT22;2294;51.818;8.484;2023-01-24T15:32:27;4.30;99.90
4564;DHT22;2294;51.818;8.484;2023-01-24T15:38:14;4.20;99.90
4564;DHT22;2294;51.818;8.484;2023-01-24T15:40:48;4.30;99.90
4564;DHT22;2294;51.818;8.484;2023-01-24T15:43:19;4.20;99.90
4564;DHT22;2294;51.818;8.484;2023-01-24T15:46:06;4.10;99.90
4564;DHT22;2294;51.818;8.484;2023-01-24T15:48:58;4.20;99.90
4564;DHT22;2294;51.818;8.484;2023-01-24T15:51:31;4.20;99.90
4564;DHT22;2294;51.818;8.484;2023-01-24T15:53:58;4.20;99.90
4564;DHT22;2294;51.818;8.484;2023-01-24T15:56:25;4.10;99.90
4564;DHT22;2294;51.818;8.484;2023-01-24T15:58:53;4.10;99.90
4564;DHT22;2294;51.818;8.484;2023-01-24T16:01:27;4.00;99.90
4564;DHT22;2294;51.818;8.484;2023-01-24T16:03:56;4.00;99.90
4564;DHT22;2294;51.818;8.484;2023-01-24T16:06:22;3.90;99.90
4564;DHT22;2294;51.818;8.484;2023-01-24T16:08:49;4.10;99.90
4564;DHT22;2294;51.818;8.484;2023-01-24T16:11:16;4.00;99.90
4564;DHT22;2294;51.818;8.484;2023-01-24T16:13:48;3.00;99.90
4564;DHT22;2294;51.818;8.484;2023-01-24T16:16:22;4.00;99.90
4564;DHT22;2294;51.818;8.484;2023-01-24T16:18:49;4.00;99.90
4564;DHT22;2294;51.818;8.484;2023-01-24T16:21:16;4.00;99.90
4564;DHT22;2294;51.818;8.484;2023-01-24T16:23:43;3.90;99.90
4564;DHT22;2294;51.818;8.484;2023-01-24T16:26:18;3.80;99.90
4564;DHT22;2294;51.818;8.484;2023-01-24T16:28:45;3.90;99.90
4564;DHT22;2294;51.818;8.484;2023-01-24T16:31:12;4.00;99.90
4564;DHT22;2294;51.818;8.484;2023-01-24T16:33:41;3.80;99.90
4564;DHT22;2294;51.818;8.484;2023-01-24T16:36:09;3.90;99.90
4564;DHT22;2294;51.818;8.484;2023-01-24T16:38:38;3.90;99.90
4564;DHT22;2294;51.818;8.484;2023-01-24T16:41:04;3.70;99.90
4564;DHT22;2294;51.818;8.484;2023-01-24T16:43:31;3.80;99.90
4564;DHT22;2294;51.818;8.484;2023-01-24T16:45:58;3.80;99.90
4564;DHT22;2294;51.818;8.484;2023-01-24T16:48:26;3.80;99.90
4564;DHT22;2294;51.818;8.484;2023-01-24T16:50:54;3.80;99.90
4564;DHT22;2294;51.818;8.484;2023-01-24T16:53:21;3.90;99.90
4564;DHT22;2294;51.818;8.484;2023-01-24T16:55:54;3.80;99.90